aviador You're here:

PFNO Decoded Metar

in
Report Time2018-04-23 22:56:00
UTC Time2018-04-23 23:05:27
Flight Rules vfr VFR
Wind070° at 14 kt
W.Decomp.*RWY 06: 13.8 kt HW 2.4 kt RCW
W.Rank070° ranks 1
Current wind is above 070° avg. (11.6)
Visibility9999 m
Phenomena:N/A
Clouds:N/A
Expected CloudBase > 3,200 ft AGL from Temp-Dew spread
CeilingNone
Temp01°C
Dew Point-7°C (56% RH)
AAT-6.8°C
QNH1002 hPa
Raw Report
PFNO 232256Z AUTO 07014KT 10SM CLR 01/M07 A2959 RMK AO2 SLP022
T00061067 FZRANO=

Extra information for PFNO:More info

Social comments